Terminal Aerodrome Forecast
Issued by NWS Twin Cities, MN

Home | Current Version | Previous Version | Graphics & Text | Print | Product List | Glossary On
Versions: 1 2 3 4 5 6 7 8 9 10 11 12 13 14 15
000
FTUS43 KMPX 181720
TAFEAU
TAF
KEAU 181720Z 1818/1918 29006KT P6SM SCT200
     FM190200 VRB02KT P6SM SCT200
     FM191400 13004KT P6SM BKN200=

USA.gov is the U.S. government's official web portal to all federal, state and local government web resources and services.